Hlavní strana
METAR-TAF:

METAR-TAF

Letiště :

Hamilton, Ohio, Spojené státy americké

zeměpisná šířka: 39-21-41N, zeměpisná délka: 084-31-15W, výška: 193 m

Aktuální stav počasí

Zpráva byla vytvořena před 26 minutami, v 21:14 UTC
Východojihovýchodní vítr 5 kt
Teplota 6°C
Vlhkost vzduchu 93%
Tlak 1010 hPa
Viditelnost: 4.8 km
Zataženo ve výšce 1400 ft
slabý déšť, kouřmo

METAR: KHAO 242114Z AUTO 11005KT 3SM -RA BR OVC014 06/05 A2982 RMK AO2 P0002 T00610050

Čas: 16:40 (21:40 UTC)


TAF: chybějící

Stav a předpovědi počasí z více než 4 000 letišť (zprávy METAR a TAF).

Červené a žluté tečky na mapě představují dostupné meteorologické stanice.

Když kurzor umístíte na tečku, zobrazí se název stanice.

Pak kliknutím zobrazíte stav a předpověď počasí.

Chcete-li změnit mapu, kliknutím na zelené tlačítko se znaménkem +mapu přiblížíte, kliknutím na zelené tlačítko se znaménkem – mapu oddálíte a kliknutím na zelené šipky přejdete na sousední mapy.


METAR-TAF: